Andover, New York
Current Conditions -  °F | °C
As of 6:56 AM on Sunday 23 Nov 2014 (Local Time) from KELZ Reporting Station
Overcast Overcast  
Wind Chill: 39°   Ceiling: 3800
Heat Index: 45°   Visibility: 10mi
Dew Point: 31°   Wind: 12mph
Humidity: 58%   Direction: 220°SW
Pressure: 30.07"   Gusts: NA
Location:  42.16°N, 77.8°W
Report Text: KELZ 231156Z AUTO 22010KT 10SM OVC038 07/M01 A3007 RMK AO2 SLP195 60001 70006 T00721006 10072 20056 53008
Loading
Personal Weather Stations






























Interactive Weather Map New forecast layout! Learn more

10-Day Weather Forecast

Advertisements
Track Severe Weather on mobile